createdAt,value
2018-12-29T00:01:06.775Z,97.30
2018-12-29T00:03:39.295Z,97.30
2018-12-29T00:06:11.760Z,97.20
2018-12-29T00:08:44.632Z,97.20
2018-12-29T00:11:19.293Z,97.20
2018-12-29T00:13:52.012Z,97.20
2018-12-29T00:16:24.668Z,97.10
2018-12-29T00:19:03.900Z,97.20
2018-12-29T00:21:36.998Z,97.20
2018-12-29T00:26:45.230Z,97.20
2018-12-29T00:29:17.882Z,97.20
2018-12-29T00:31:50.188Z,97.20
2018-12-29T00:34:24.648Z,97.20
2018-12-29T00:36:57.493Z,97.20
2018-12-29T00:39:30.092Z,97.20
2018-12-29T00:42:03.633Z,97.20
2018-12-29T00:44:36.322Z,97.30
2018-12-29T00:47:10.088Z,97.40
2018-12-29T00:49:42.690Z,97.60
2018-12-29T00:52:15.305Z,97.80
2018-12-29T00:54:48.324Z,98.10
2018-12-29T00:57:21.262Z,98.20
2018-12-29T00:59:53.924Z,98.30
2018-12-29T01:02:28.068Z,98.70
2018-12-29T01:05:00.597Z,98.80
2018-12-29T01:07:35.654Z,99.10
2018-12-29T01:10:08.692Z,99.90
2018-12-29T01:12:41.410Z,99.90
2018-12-29T01:15:14.298Z,99.90
2018-12-29T01:17:46.694Z,99.90
2018-12-29T01:20:19.076Z,99.90
2018-12-29T01:22:51.824Z,99.90
2018-12-29T01:25:24.880Z,99.90
2018-12-29T01:27:58.290Z,99.90
2018-12-29T01:30:30.540Z,99.90
2018-12-29T01:33:04.728Z,99.90
2018-12-29T01:35:38.002Z,99.90
2018-12-29T01:38:11.150Z,99.90
2018-12-29T01:40:43.446Z,99.90
2018-12-29T01:43:17.649Z,99.90
2018-12-29T01:45:49.822Z,99.90
2018-12-29T01:48:23.537Z,99.90
2018-12-29T01:50:56.129Z,99.90
2018-12-29T01:53:28.543Z,99.90
2018-12-29T01:56:01.813Z,99.90
2018-12-29T01:58:38.556Z,99.90
2018-12-29T02:01:14.499Z,99.90
2018-12-29T02:03:50.379Z,99.90
2018-12-29T02:06:22.822Z,99.90
2018-12-29T02:08:55.414Z,99.90
2018-12-29T02:11:28.089Z,99.90
2018-12-29T02:14:00.809Z,99.90
2018-12-29T02:16:33.493Z,99.90
2018-12-29T02:19:06.250Z,99.90
2018-12-29T02:21:38.783Z,99.90
2018-12-29T02:24:11.758Z,99.90
2018-12-29T02:26:44.083Z,99.90
2018-12-29T02:29:16.811Z,99.90
2018-12-29T02:31:49.252Z,99.90
2018-12-29T02:36:57.484Z,99.90
2018-12-29T02:39:30.058Z,99.90
2018-12-29T02:42:02.974Z,99.90
2018-12-29T02:44:37.078Z,99.90
2018-12-29T02:47:10.090Z,99.90
2018-12-29T02:49:42.957Z,99.90
2018-12-29T02:52:15.022Z,99.90
2018-12-29T02:54:47.912Z,99.90
2018-12-29T02:57:20.113Z,99.90
2018-12-29T02:59:52.572Z,99.90
2018-12-29T03:02:29.530Z,99.90
2018-12-29T03:05:01.659Z,99.90
2018-12-29T03:07:34.549Z,99.90
2018-12-29T03:10:07.085Z,99.90
2018-12-29T03:12:39.266Z,99.90
2018-12-29T03:15:11.873Z,99.90
2018-12-29T03:17:44.924Z,99.90
2018-12-29T03:20:17.808Z,99.90
2018-12-29T03:22:50.527Z,99.90
2018-12-29T03:25:22.708Z,99.90
2018-12-29T03:27:55.092Z,99.90
2018-12-29T03:30:27.629Z,99.90
2018-12-29T03:33:00.177Z,99.90
2018-12-29T03:35:32.988Z,99.90
2018-12-29T03:38:05.406Z,99.90
2018-12-29T03:40:37.515Z,99.90
2018-12-29T03:46:00.511Z,99.90
2018-12-29T03:51:09.379Z,99.90
2018-12-29T03:53:43.761Z,99.90
2018-12-29T03:56:20.177Z,99.90
2018-12-29T03:58:54.928Z,99.90
2018-12-29T04:01:28.842Z,99.90
2018-12-29T04:04:01.396Z,99.90
2018-12-29T04:06:34.634Z,99.90
2018-12-29T04:09:34.121Z,99.90
2018-12-29T04:14:43.428Z,99.90
2018-12-29T04:20:05.544Z,99.90
2018-12-29T04:22:38.012Z,99.90
2018-12-29T04:25:10.419Z,99.90
2018-12-29T04:27:43.133Z,99.90
2018-12-29T04:30:15.642Z,99.90
2018-12-29T04:32:48.438Z,99.90
2018-12-29T04:35:20.786Z,99.90
2018-12-29T04:37:53.047Z,99.90
2018-12-29T04:40:25.268Z,99.90
2018-12-29T04:42:57.962Z,99.90
2018-12-29T04:45:30.797Z,99.90
2018-12-29T04:53:28.396Z,99.90
2018-12-29T04:56:00.659Z,99.90
2018-12-29T04:58:32.828Z,99.90
2018-12-29T05:01:05.389Z,99.90
2018-12-29T05:03:38.396Z,99.90
2018-12-29T05:06:10.840Z,99.90
2018-12-29T05:08:43.128Z,99.90
2018-12-29T05:11:15.520Z,99.90
2018-12-29T05:13:47.904Z,99.90
2018-12-29T05:16:20.051Z,99.90
2018-12-29T05:18:52.668Z,99.90
2018-12-29T05:21:24.648Z,99.90
2018-12-29T05:23:56.919Z,99.90
2018-12-29T05:29:38.679Z,99.90
2018-12-29T05:32:11.561Z,99.90
2018-12-29T05:34:44.393Z,99.90
2018-12-29T05:37:16.761Z,99.90
2018-12-29T05:39:48.849Z,99.90
2018-12-29T05:42:21.366Z,99.90
2018-12-29T05:44:53.696Z,99.90
2018-12-29T05:47:26.105Z,99.90
2018-12-29T05:49:58.817Z,99.90
2018-12-29T05:52:31.264Z,99.90
2018-12-29T05:55:04.311Z,99.90
2018-12-29T05:57:36.217Z,99.90
2018-12-29T06:00:09.637Z,99.90
2018-12-29T06:02:43.067Z,99.90
2018-12-29T06:05:15.070Z,99.90
2018-12-29T06:07:48.328Z,99.90
2018-12-29T06:10:21.052Z,99.90
2018-12-29T06:12:53.788Z,99.90
2018-12-29T06:15:26.413Z,99.90
2018-12-29T06:17:58.521Z,99.90
2018-12-29T06:20:31.096Z,99.90
2018-12-29T06:23:03.636Z,99.90
2018-12-29T06:25:36.303Z,99.90
2018-12-29T06:28:09.001Z,99.90
2018-12-29T06:30:41.459Z,99.90
2018-12-29T06:33:24.024Z,99.90
2018-12-29T06:35:56.255Z,99.90
2018-12-29T06:38:28.818Z,99.90
2018-12-29T06:43:30.128Z,99.90
2018-12-29T06:46:03.275Z,99.90
2018-12-29T06:48:35.974Z,99.90
2018-12-29T06:51:08.631Z,99.90
2018-12-29T06:53:41.470Z,99.90
2018-12-29T06:56:13.908Z,99.90
2018-12-29T06:58:46.207Z,99.90
2018-12-29T07:01:18.713Z,99.90
2018-12-29T07:03:51.220Z,99.90
2018-12-29T07:06:23.892Z,99.90
2018-12-29T07:08:56.108Z,99.90
2018-12-29T07:11:28.739Z,99.90
2018-12-29T07:14:01.213Z,99.90
2018-12-29T07:16:34.119Z,99.90
2018-12-29T07:19:06.623Z,99.90
2018-12-29T07:21:39.483Z,99.90
2018-12-29T07:26:48.032Z,99.90
2018-12-29T07:31:56.301Z,99.90
2018-12-29T07:34:28.809Z,99.90
2018-12-29T07:37:01.455Z,99.90
2018-12-29T07:44:55.116Z,99.90
2018-12-29T07:49:56.391Z,99.90
2018-12-29T07:52:28.761Z,99.90
2018-12-29T07:55:01.085Z,99.90
2018-12-29T07:57:33.580Z,99.90
2018-12-29T08:00:06.496Z,99.90
2018-12-29T08:02:38.845Z,99.90
2018-12-29T08:05:11.287Z,99.90
2018-12-29T08:10:54.399Z,99.90
2018-12-29T08:15:56.556Z,99.90
2018-12-29T08:18:28.789Z,99.90
2018-12-29T08:21:01.333Z,99.90
2018-12-29T08:23:33.945Z,99.90
2018-12-29T08:26:06.720Z,99.90
2018-12-29T08:28:39.673Z,99.90
2018-12-29T08:31:12.293Z,99.90
2018-12-29T08:33:44.606Z,99.90
2018-12-29T08:36:16.988Z,99.90
2018-12-29T08:38:50.011Z,99.90
2018-12-29T08:41:22.817Z,99.90
2018-12-29T08:43:54.880Z,99.90
2018-12-29T08:46:27.349Z,99.60
2018-12-29T08:49:00.216Z,98.80
2018-12-29T08:51:32.500Z,98.60
2018-12-29T08:54:04.939Z,98.60
2018-12-29T08:56:37.308Z,98.00
2018-12-29T08:59:10.108Z,97.30
2018-12-29T09:01:42.845Z,97.00
2018-12-29T09:04:15.851Z,96.80
2018-12-29T09:06:48.791Z,97.60
2018-12-29T09:09:21.121Z,97.20
2018-12-29T09:11:53.817Z,96.60
2018-12-29T09:14:26.356Z,96.30
2018-12-29T09:16:59.132Z,96.50
2018-12-29T09:19:32.037Z,96.60
2018-12-29T09:22:04.900Z,96.50
2018-12-29T09:24:37.385Z,96.40
2018-12-29T09:27:09.860Z,96.50
2018-12-29T09:29:42.186Z,96.20
2018-12-29T09:32:14.304Z,96.40
2018-12-29T09:34:46.518Z,94.80
2018-12-29T09:37:19.068Z,94.60
2018-12-29T09:39:51.464Z,93.60
2018-12-29T09:42:24.065Z,93.40
2018-12-29T09:47:26.052Z,93.30
2018-12-29T09:49:58.405Z,93.90
2018-12-29T09:52:31.077Z,94.10
2018-12-29T09:55:04.049Z,94.40
2018-12-29T09:57:36.648Z,94.20
2018-12-29T10:02:45.252Z,94.00
2018-12-29T10:07:53.366Z,94.40
2018-12-29T10:10:26.078Z,94.40
2018-12-29T10:12:58.588Z,94.90
2018-12-29T10:15:31.228Z,94.30
2018-12-29T10:18:03.863Z,93.50
2018-12-29T10:20:36.438Z,93.00
2018-12-29T10:23:08.869Z,92.90
2018-12-29T10:25:41.444Z,92.90
2018-12-29T10:28:14.121Z,93.00
2018-12-29T10:30:47.060Z,93.30
2018-12-29T10:33:19.708Z,92.50
2018-12-29T10:35:52.426Z,92.60
2018-12-29T10:38:24.990Z,92.90
2018-12-29T10:40:57.368Z,92.20
2018-12-29T10:43:29.876Z,91.80
2018-12-29T10:46:03.178Z,90.40
2018-12-29T10:48:35.664Z,90.40
2018-12-29T10:51:08.321Z,90.60
2018-12-29T10:53:40.701Z,91.40
2018-12-29T10:56:13.497Z,91.20
2018-12-29T10:58:45.937Z,90.70
2018-12-29T11:01:18.708Z,90.90
2018-12-29T11:03:51.428Z,91.00
2018-12-29T11:06:24.108Z,90.10
2018-12-29T11:08:56.638Z,89.80
2018-12-29T11:11:28.845Z,86.50
2018-12-29T11:14:01.453Z,87.70
2018-12-29T11:16:34.933Z,88.20
2018-12-29T11:19:08.025Z,87.30
2018-12-29T11:21:40.804Z,86.60
2018-12-29T11:24:13.292Z,87.70
2018-12-29T11:26:46.185Z,87.90
2018-12-29T11:29:18.953Z,84.90
2018-12-29T11:31:51.389Z,80.10
2018-12-29T11:34:23.907Z,80.50
2018-12-29T11:36:56.380Z,80.70
2018-12-29T11:39:29.431Z,79.80
2018-12-29T11:42:01.780Z,79.90
2018-12-29T11:44:34.012Z,78.00
2018-12-29T11:47:06.970Z,78.60
2018-12-29T11:49:39.988Z,78.50
2018-12-29T11:52:13.273Z,80.70
2018-12-29T11:54:45.456Z,81.50
2018-12-29T11:57:17.878Z,82.50
2018-12-29T11:59:50.182Z,80.10
2018-12-29T12:02:24.604Z,80.60
2018-12-29T12:04:56.829Z,80.00
2018-12-29T12:07:29.225Z,79.80
2018-12-29T12:10:03.805Z,80.10
2018-12-29T12:12:36.345Z,79.90
2018-12-29T12:15:09.377Z,79.60
2018-12-29T12:17:42.283Z,79.10
2018-12-29T12:20:15.473Z,75.70
2018-12-29T12:30:55.416Z,75.60
2018-12-29T12:33:28.729Z,75.80
2018-12-29T12:36:01.613Z,76.10
2018-12-29T12:38:34.210Z,76.20
2018-12-29T12:41:07.156Z,76.70
2018-12-29T12:43:39.861Z,77.20
2018-12-29T12:46:12.653Z,78.30
2018-12-29T12:48:45.240Z,78.20
2018-12-29T12:51:18.091Z,78.70
2018-12-29T12:53:50.363Z,79.60
2018-12-29T12:56:23.113Z,79.00
2018-12-29T12:58:55.368Z,78.80
2018-12-29T13:01:28.565Z,79.00
2018-12-29T13:04:00.992Z,78.30
2018-12-29T13:09:10.991Z,73.30
2018-12-29T13:11:43.414Z,72.40
2018-12-29T13:14:15.519Z,72.90
2018-12-29T13:16:47.922Z,72.60
2018-12-29T13:22:44.404Z,72.20
2018-12-29T13:25:16.984Z,73.10
2018-12-29T13:27:49.787Z,73.00
2018-12-29T13:30:22.621Z,73.00
2018-12-29T13:32:55.501Z,72.70
2018-12-29T13:35:28.055Z,73.10
2018-12-29T13:38:00.868Z,70.10
2018-12-29T13:40:33.582Z,69.00
2018-12-29T13:43:05.985Z,69.30
2018-12-29T13:45:38.805Z,69.90
2018-12-29T13:48:11.612Z,69.40
2018-12-29T13:53:19.620Z,69.70
2018-12-29T13:58:54.895Z,69.00
2018-12-29T14:06:59.475Z,68.70
2018-12-29T14:09:32.480Z,68.80
2018-12-29T14:15:00.424Z,70.80
2018-12-29T14:17:33.037Z,68.20
2018-12-29T14:20:05.971Z,67.20
2018-12-29T14:22:38.781Z,66.60
2018-12-29T14:25:11.564Z,66.30
2018-12-29T14:27:44.440Z,66.90
2018-12-29T14:32:52.984Z,67.00
2018-12-29T14:35:25.407Z,67.50
2018-12-29T14:37:58.326Z,66.10
2018-12-29T14:40:31.027Z,65.90
2018-12-29T14:43:03.796Z,65.30
2018-12-29T14:45:35.839Z,66.40
2018-12-29T14:50:44.181Z,67.60
2018-12-29T14:53:16.208Z,67.40
2018-12-29T14:55:48.743Z,68.10
2018-12-29T14:58:21.064Z,68.00
2018-12-29T15:00:54.068Z,68.10
2018-12-29T15:06:03.173Z,65.30
2018-12-29T15:08:35.453Z,66.30
2018-12-29T15:11:08.310Z,67.60
2018-12-29T15:13:41.106Z,67.70
2018-12-29T15:16:14.065Z,66.30
2018-12-29T15:18:46.651Z,64.90
2018-12-29T15:21:18.921Z,64.00
2018-12-29T15:23:51.267Z,63.60
2018-12-29T15:26:24.164Z,63.80
2018-12-29T15:28:57.170Z,64.60
2018-12-29T15:31:29.926Z,64.80
2018-12-29T15:34:03.023Z,65.10
2018-12-29T15:39:30.604Z,65.10
2018-12-29T15:42:03.168Z,64.00
2018-12-29T15:47:11.207Z,64.20
2018-12-29T15:49:45.374Z,65.20
2018-12-29T15:52:18.000Z,64.30
2018-12-29T15:54:50.585Z,64.80
2018-12-29T15:57:23.435Z,63.80
2018-12-29T15:59:55.844Z,65.00
2018-12-29T16:02:29.182Z,65.10
2018-12-29T16:05:04.528Z,65.70
2018-12-29T16:07:37.145Z,66.40
2018-12-29T16:10:10.029Z,66.90
2018-12-29T16:12:42.801Z,66.10
2018-12-29T16:15:16.045Z,65.20
2018-12-29T16:20:23.084Z,62.00
2018-12-29T16:22:55.543Z,60.90
2018-12-29T16:25:28.197Z,61.30
2018-12-29T16:28:00.376Z,60.80
2018-12-29T16:33:09.063Z,60.90
2018-12-29T16:35:41.683Z,61.30
2018-12-29T16:40:43.589Z,62.50
2018-12-29T16:43:16.311Z,61.60
2018-12-29T16:45:49.578Z,60.40
2018-12-29T16:48:22.171Z,60.40
2018-12-29T16:50:54.737Z,61.40
2018-12-29T16:53:29.399Z,61.80
2018-12-29T16:56:01.040Z,62.40
2018-12-29T16:58:33.813Z,60.30
2018-12-29T17:01:06.182Z,61.00
2018-12-29T17:06:54.339Z,60.10
2018-12-29T17:09:27.099Z,62.40
2018-12-29T17:11:59.574Z,60.20
2018-12-29T17:14:33.270Z,59.20
2018-12-29T17:19:41.592Z,59.40
2018-12-29T17:22:13.743Z,60.30
2018-12-29T17:24:47.003Z,60.50
2018-12-29T17:27:19.554Z,59.20
2018-12-29T17:32:28.987Z,58.80
2018-12-29T17:35:01.350Z,59.00
2018-12-29T17:37:33.731Z,58.70
2018-12-29T17:40:07.129Z,58.20
2018-12-29T17:42:39.748Z,58.60
2018-12-29T17:47:50.921Z,59.40
2018-12-29T17:50:24.449Z,59.90
2018-12-29T17:53:03.607Z,60.00
2018-12-29T17:55:36.307Z,61.80
2018-12-29T18:00:51.610Z,61.20
2018-12-29T18:03:24.136Z,61.00
2018-12-29T18:05:57.024Z,59.30
2018-12-29T18:11:05.639Z,58.70
2018-12-29T18:13:38.427Z,60.10
2018-12-29T18:16:10.770Z,60.90
2018-12-29T18:18:43.252Z,61.10
2018-12-29T18:21:15.685Z,60.30
2018-12-29T18:23:47.917Z,58.90
2018-12-29T18:26:20.911Z,57.70
2018-12-29T18:28:53.573Z,57.60
2018-12-29T18:31:26.762Z,58.00
2018-12-29T18:33:59.151Z,58.50
2018-12-29T18:36:31.725Z,57.90
2018-12-29T18:39:05.446Z,57.10
2018-12-29T18:41:38.339Z,56.90
2018-12-29T18:44:11.215Z,56.90
2018-12-29T18:46:44.554Z,57.20
2018-12-29T18:49:17.114Z,56.40
2018-12-29T18:54:25.372Z,56.60
2018-12-29T18:56:58.553Z,57.30
2018-12-29T18:59:31.166Z,57.30
2018-12-29T19:02:03.949Z,57.50
2018-12-29T19:04:36.935Z,58.30
2018-12-29T19:07:09.638Z,57.50
2018-12-29T19:12:11.299Z,58.70
2018-12-29T19:14:44.537Z,58.80
2018-12-29T19:17:17.300Z,58.60
2018-12-29T19:19:49.626Z,58.60
2018-12-29T19:22:22.908Z,58.40
2018-12-29T19:27:31.080Z,57.60
2018-12-29T19:30:05.322Z,57.10
2018-12-29T19:32:37.574Z,56.80
2018-12-29T19:37:46.587Z,57.40
2018-12-29T19:40:19.835Z,58.60
2018-12-29T19:42:52.860Z,57.60
2018-12-29T19:48:01.400Z,58.80
2018-12-29T19:50:34.373Z,58.90
2018-12-29T19:53:07.228Z,59.60
2018-12-29T19:55:40.416Z,59.10
2018-12-29T20:00:49.059Z,60.00
2018-12-29T20:06:11.358Z,59.20
2018-12-29T20:08:44.499Z,59.50
2018-12-29T20:11:17.127Z,58.80
2018-12-29T20:13:50.123Z,58.60
2018-12-29T20:18:58.781Z,57.70
2018-12-29T20:21:31.767Z,58.10
2018-12-29T20:24:04.572Z,58.80
2018-12-29T20:26:38.201Z,58.50
2018-12-29T20:29:10.777Z,58.60
2018-12-29T20:31:44.354Z,58.70
2018-12-29T20:34:16.678Z,59.50
2018-12-29T20:36:49.804Z,60.10
2018-12-29T20:39:22.958Z,60.10
2018-12-29T20:41:55.945Z,60.50
2018-12-29T20:44:29.033Z,60.20
2018-12-29T20:47:02.838Z,60.40
2018-12-29T20:52:24.804Z,60.90
2018-12-29T20:54:58.055Z,60.90
2018-12-29T20:57:31.175Z,61.40
2018-12-29T21:00:04.534Z,61.20
2018-12-29T21:02:37.051Z,61.90
2018-12-29T21:05:14.394Z,62.30
2018-12-29T21:07:47.146Z,62.10
2018-12-29T21:10:19.628Z,61.30
2018-12-29T21:12:51.862Z,62.10
2018-12-29T21:15:24.429Z,62.40
2018-12-29T21:17:56.648Z,62.60
2018-12-29T21:20:29.289Z,63.20
2018-12-29T21:23:01.734Z,63.60
2018-12-29T21:25:35.004Z,64.80
2018-12-29T21:30:43.832Z,64.90
2018-12-29T21:33:16.099Z,64.10
2018-12-29T21:35:49.152Z,63.10
2018-12-29T21:38:21.612Z,62.30
2018-12-29T21:40:54.607Z,62.50
2018-12-29T21:43:27.128Z,61.40
2018-12-29T21:45:59.854Z,61.50
2018-12-29T21:48:32.386Z,61.40
2018-12-29T21:51:05.042Z,62.70
2018-12-29T21:53:37.188Z,62.70
2018-12-29T21:56:09.572Z,62.70
2018-12-29T22:01:18.752Z,63.10
2018-12-29T22:03:50.972Z,64.00
2018-12-29T22:06:24.018Z,64.10
2018-12-29T22:08:58.866Z,64.10
2018-12-29T22:11:31.769Z,64.20
2018-12-29T22:14:05.028Z,64.20
2018-12-29T22:16:37.742Z,64.80
2018-12-29T22:19:10.425Z,65.00
2018-12-29T22:21:42.816Z,65.80
2018-12-29T22:24:16.055Z,66.30
2018-12-29T22:26:48.834Z,66.30
2018-12-29T22:29:22.072Z,67.00
2018-12-29T22:31:55.067Z,66.40
2018-12-29T22:34:27.789Z,66.70
2018-12-29T22:37:00.096Z,66.60
2018-12-29T22:39:33.230Z,66.50
2018-12-29T22:44:41.428Z,66.10
2018-12-29T22:47:13.959Z,66.60
2018-12-29T22:49:46.946Z,66.60
2018-12-29T22:52:19.588Z,66.80
2018-12-29T22:54:51.838Z,67.40
2018-12-29T22:57:24.051Z,67.20
2018-12-29T22:59:57.214Z,67.70
2018-12-29T23:02:30.118Z,68.20
2018-12-29T23:05:02.627Z,68.40
2018-12-29T23:07:35.200Z,68.10
2018-12-29T23:10:08.020Z,68.50
2018-12-29T23:12:40.257Z,68.00
2018-12-29T23:15:12.972Z,67.40
2018-12-29T23:17:45.604Z,67.80
2018-12-29T23:20:18.230Z,68.30
2018-12-29T23:25:26.759Z,68.90
2018-12-29T23:27:59.424Z,68.80
2018-12-29T23:30:33.568Z,68.30
2018-12-29T23:33:07.280Z,68.60
2018-12-29T23:38:15.996Z,69.20
2018-12-29T23:40:48.676Z,69.20
2018-12-29T23:43:21.050Z,69.00
2018-12-29T23:45:54.436Z,68.80
2018-12-29T23:48:27.256Z,68.90
2018-12-29T23:51:05.573Z,68.60
2018-12-29T23:53:33.917Z,68.50
2018-12-29T23:56:07.416Z,69.00
2018-12-29T23:58:40.365Z,69.30
